Time;durP1;ratioP1;P1;durP2;ratioP2;P2;SDS_P1;SDS_P2;PMS_P1;PMS_P2;Temp;Humidity;BMP_temperature;BMP_pressure;BME280_temperature;BME280_humidity;BME280_pressure;Samples;Min_cycle;Max_cycle;Signal;HPM_P1;HPM_P2
2022/09/23 00:00:17;;;;;;;;;1.00;1.00;;;;;15.13;41.20;101126.66;146609;569;47014;-70
2022/09/23 00:03:09;;;;;;;;;1.50;1.00;;;;;15.02;41.20;101119.31;146615;570;46020;-70
2022/09/23 00:06:18;;;;;;;;;2.50;1.25;;;;;15.02;40.93;101119.31;146611;571;46013;-69
2022/09/23 00:09:31;;;;;;;;;;;;;;;;;;;;;
2022/09/23 00:12:40;;;;;;;;;0.00;0.00;;;;;14.01;40.35;100927.34;146606;620;47013;-68
2022/09/23 00:15:35;;;;;;;;;2.75;1.50;;;;;15.16;40.71;101119.84;146617;569;46010;-69
2022/09/23 00:18:31;;;;;;;;;1.25;1.25;;;;;15.19;40.14;101116.47;146610;633;47012;-69
2022/09/23 00:21:28;;;;;;;;;0.00;0.00;;;;;15.23;40.33;101115.75;146617;580;46020;-66
2022/09/23 00:24:31;;;;;;;;;;;;;;;;;;;;;
2022/09/23 00:27:27;;;;;;;;;2.50;1.25;;;;;15.27;40.36;101114.16;146617;597;46020;-66
2022/09/23 00:30:23;;;;;;;;;0.50;0.50;;;;;15.29;40.81;101120.31;146612;564;47016;-66
2022/09/23 00:33:15;;;;;;;;;1.00;1.00;;;;;15.27;40.73;101124.63;146613;615;47011;-68
2022/09/23 00:36:14;;;;;;;;;1.00;1.00;;;;;15.30;41.16;101122.13;146610;662;47012;-70
2022/09/23 00:39:09;;;;;;;;;1.25;1.25;;;;;15.36;40.73;101128.47;146609;606;46020;-69
2022/09/23 00:42:06;;;;;;;;;2.00;2.00;;;;;15.41;40.90;101126.91;146610;569;47014;-71
2022/09/23 00:45:10;;;;;;;;;2.25;1.75;;;;;15.48;40.84;101121.09;146615;633;46010;-68
2022/09/23 00:48:17;;;;;;;;;1.50;1.00;;;;;15.52;40.55;101129.94;146613;576;46017;-70
2022/09/23 00:51:20;;;;;;;;;0.00;0.00;;;;;15.51;40.55;101129.88;146615;629;46020;-68
2022/09/23 00:54:29;;;;;;;;;1.25;1.25;;;;;15.46;40.34;101133.19;146612;569;46016;-68
2022/09/23 00:57:29;;;;;;;;;3.50;3.00;;;;;15.43;41.17;101127.84;146616;574;46021;-68
2022/09/23 01:00:37;;;;;;;;;2.00;2.00;;;;;15.32;40.98;101131.78;146612;609;46016;-68
2022/09/23 01:03:47;;;;;;;;;1.75;1.50;;;;;14.04;41.42;100927.47;146616;604;46010;-73
2022/09/23 01:06:40;;;;;;;;;2.75;2.75;;;;;15.06;42.48;101130.78;146611;588;46016;-72
2022/09/23 01:09:39;;;;;;;;;2.75;2.25;;;;;14.88;42.42;101132.66;146607;616;47010;-72
2022/09/23 01:13:20;;;;;;;;;2.00;1.25;;;;;13.54;41.88;100931.50;146610;660;46913;-72
2022/09/23 01:16:58;;;;;;;;;2.25;2.25;;;;;13.43;42.10;100937.06;146616;563;46020;-70
2022/09/23 01:20:29;;;;;;;;;3.50;2.00;;;;;14.48;42.90;101134.47;146612;575;46012;-69
2022/09/23 01:24:07;;;;;;;;;2.00;2.00;;;;;13.42;42.43;100972.63;146619;586;46020;-73
2022/09/23 01:27:51;;;;;;;;;2.00;1.00;;;;;14.31;42.57;101141.59;146609;606;46017;-72
2022/09/23 01:31:23;;;;;;;;;4.00;3.00;;;;;12.19;42.39;100785.00;146615;572;47010;-70
2022/09/23 01:34:47;;;;;;;;;4.50;4.25;;;;;14.18;43.37;101144.50;146608;680;47013;-71
2022/09/23 01:38:12;;;;;;;;;2.75;2.75;;;;;14.12;43.71;101146.84;146617;627;46020;-72
2022/09/23 01:41:30;;;;;;;;;4.50;4.50;;;;;14.06;43.67;101143.97;146610;604;47013;-72
2022/09/23 01:45:11;;;;;;;;;4.00;3.00;;;;;12.56;43.44;100887.22;146603;586;46010;-76
2022/09/23 01:48:26;;;;;;;;;5.75;4.00;;;;;13.94;43.96;101141.72;146612;612;46017;-70
2022/09/23 01:51:53;;;;;;;;;3.00;3.00;;;;;13.87;43.48;101147.50;146615;580;47010;-71
2022/09/23 01:55:16;;;;;;;;;6.00;4.00;;;;;13.80;43.96;101141.13;146611;627;46914;-71
2022/09/23 01:58:30;;;;;;;;;6.00;4.00;;;;;13.71;44.54;101135.50;146615;618;46010;-71
2022/09/23 02:01:40;;;;;;;;;6.75;4.75;;;;;13.68;45.12;101131.84;146609;609;46016;-69
2022/09/23 02:05:33;;;;;;;;;3.25;3.00;;;;;12.63;43.88;100954.31;146616;644;46021;-70
2022/09/23 02:08:32;;;;;;;;;6.25;5.25;;;;;13.58;44.94;101125.31;146613;597;46016;-69
2022/09/23 02:11:51;;;;;;;;;2.75;2.75;;;;;12.42;44.30;100922.97;146613;645;46021;-70
2022/09/23 02:15:07;;;;;;;;;4.00;3.00;;;;;13.53;44.70;101127.72;146611;581;46025;-70
2022/09/23 02:18:40;;;;;;;;;3.75;3.50;;;;;12.32;44.25;100919.06;146605;565;46010;-70
2022/09/23 02:21:42;;;;;;;;;4.25;4.25;;;;;13.46;45.46;101119.53;146611;597;47012;-69
2022/09/23 02:24:39;;;;;;;;;5.25;4.00;;;;;13.41;45.28;101116.72;146617;668;47010;-67
2022/09/23 02:28:08;;;;;;;;;4.75;3.50;;;;;11.31;45.15;100756.59;146611;584;46016;-67
2022/09/23 02:31:28;;;;;;;;;;;;;;;;;;;;;
2022/09/23 02:34:39;;;;;;;;;3.25;3.00;;;;;13.27;45.08;101116.13;146612;605;46016;-70
2022/09/23 02:38:11;;;;;;;;;;;;;;;;;;;;;
2022/09/23 02:41:36;;;;;;;;;3.50;2.25;;;;;12.02;45.34;100905.47;146611;564;46017;-67
2022/09/23 02:44:47;;;;;;;;;;;;;;;;;;;;;
2022/09/23 02:47:44;;;;;;;;;2.00;2.00;;;;;13.16;46.54;101109.47;146611;641;46017;-69
2022/09/23 02:50:41;;;;;;;;;5.00;4.00;;;;;13.16;46.62;101112.06;146604;581;46020;-68
2022/09/23 02:53:35;;;;;;;;;4.00;3.75;;;;;13.15;46.44;101116.38;146611;569;46015;-69
2022/09/23 02:56:33;;;;;;;;;2.75;2.75;;;;;13.10;46.84;101117.88;146617;592;46020;-67
2022/09/23 02:59:36;;;;;;;;;4.50;3.50;;;;;13.05;46.52;101114.19;146611;624;46016;-70
2022/09/23 03:03:22;;;;;;;;;;;;;;;;;;;;;
2022/09/23 03:06:38;;;;;;;;;3.75;3.75;;;;;12.95;46.01;101118.03;146613;667;46016;-68
2022/09/23 03:10:43;;;;;;;;;4.00;3.00;;;;;11.64;46.37;100900.97;146615;578;47012;-70
2022/09/23 03:14:16;;;;;;;;;2.75;2.75;;;;;12.79;46.76;101109.44;146609;609;46014;-68
2022/09/23 03:17:21;;;;;;;;;3.25;2.25;;;;;12.75;47.91;101111.00;146616;578;46021;-69
2022/09/23 03:20:22;;;;;;;;;5.00;4.00;;;;;12.08;47.61;100995.84;146612;573;46014;-69
2022/09/23 03:23:24;;;;;;;;;5.00;2.75;;;;;12.74;47.67;101116.09;146604;636;46020;-66
2022/09/23 03:26:33;;;;;;;;;4.75;4.00;;;;;12.75;47.80;101115.31;146613;571;46016;-65
2022/09/23 03:29:53;;;;;;;;;3.00;2.00;;;;;12.77;47.80;101116.25;146621;566;47010;-67
2022/09/23 03:33:04;;;;;;;;;2.25;2.25;;;;;12.78;47.78;101112.84;146610;575;46014;-67
2022/09/23 03:40:24;;;;;;;;;3.00;3.00;;;;;12.69;47.15;101095.97;146613;599;46014;-67
2022/09/23 03:43:25;;;;;;;;;1.75;1.75;;;;;12.83;47.68;101119.16;146618;571;46010;-67
2022/09/23 03:46:50;;;;;;;;;5.00;3.00;;;;;12.86;47.98;101117.59;146611;581;47013;-68
2022/09/23 03:49:49;;;;;;;;;1.75;1.75;;;;;12.87;47.62;101115.91;146615;569;46020;-67
2022/09/23 03:52:51;;;;;;;;;3.00;3.00;;;;;12.89;47.78;101112.53;146612;582;46917;-71
2022/09/23 03:55:44;;;;;;;;;6.00;4.00;;;;;11.38;48.54;100865.94;146604;576;46010;-70
2022/09/23 03:58:54;;;;;;;;;6.75;4.00;;;;;12.87;48.44;101113.31;146611;574;46012;-69
2022/09/23 04:01:51;;;;;;;;;4.75;3.50;;;;;12.84;48.88;101121.84;146618;570;46010;-70
2022/09/23 04:05:08;;;;;;;;;3.25;3.25;;;;;12.36;48.27;101037.97;146611;588;46012;-69
2022/09/23 04:08:02;;;;;;;;;4.50;4.50;;;;;12.73;49.22;101112.63;146618;677;46011;-68
2022/09/23 04:11:21;;;;;;;;;;;;;;;;;;;;;
2022/09/23 04:14:24;;;;;;;;;5.75;3.75;;;;;12.63;49.67;101119.09;146614;585;47010;-67
2022/09/23 04:17:17;;;;;;;;;4.25;3.50;;;;;12.62;49.32;101112.09;146612;570;46017;-73
2022/09/23 04:20:29;;;;;;;;;3.25;3.25;;;;;12.60;48.25;101108.53;146618;582;46020;-68
2022/09/23 04:23:39;;;;;;;;;4.00;3.75;;;;;12.62;49.31;101106.91;146610;598;47012;-70
2022/09/23 04:26:35;;;;;;;;;4.50;4.25;;;;;12.64;49.30;101109.56;146610;603;46020;-74
2022/09/23 04:29:30;;;;;;;;;3.75;3.75;;;;;12.67;49.63;101113.19;146617;595;46013;-73
2022/09/23 04:32:44;;;;;;;;;6.75;5.25;;;;;10.35;48.58;100699.88;146619;608;46021;-73
2022/09/23 04:35:49;;;;;;;;;5.00;5.00;;;;;12.70;50.15;101108.16;146613;598;46016;-72
2022/09/23 04:38:53;;;;;;;;;7.25;5.50;;;;;12.67;50.60;101115.81;146622;610;46011;-71
2022/09/23 04:41:48;;;;;;;;;6.00;5.00;;;;;12.64;49.67;101107.84;146616;588;46016;-72
2022/09/23 04:44:47;;;;;;;;;4.25;4.25;;;;;12.66;50.11;101115.75;146619;596;46021;-72
2022/09/23 04:47:43;;;;;;;;;3.25;3.25;;;;;12.67;50.18;101113.19;146616;565;46014;-70
2022/09/23 04:50:47;;;;;;;;;5.25;5.00;;;;;12.68;50.58;101107.19;146619;640;46012;-70
2022/09/23 04:53:50;;;;;;;;;3.75;3.75;;;;;12.73;50.75;101106.53;146617;597;46033;-69
2022/09/23 04:56:54;;;;;;;;;6.00;5.00;;;;;13.41;49.69;101108.91;146611;580;46012;-69
2022/09/23 04:59:55;;;;;;;;;4.50;4.00;;;;;14.49;48.39;101104.06;146616;581;46017;-69
2022/09/23 05:02:58;;;;;;;;;3.75;2.25;;;;;15.69;45.23;101105.31;146619;591;47012;-69
2022/09/23 05:05:53;;;;;;;;;6.50;6.00;;;;;16.54;43.97;101117.03;146616;577;46016;-69
2022/09/23 05:08:56;;;;;;;;;10.00;7.00;;;;;17.40;42.46;101109.25;146620;621;46031;-67
2022/09/23 05:11:59;;;;;;;;;6.50;4.00;;;;;18.29;40.84;101109.16;146620;618;46012;-68
2022/09/23 05:14:55;;;;;;;;;4.00;3.00;;;;;19.08;40.01;101114.59;146620;583;46012;-66
2022/09/23 05:18:01;;;;;;;;;;;;;;;;;;;;;
2022/09/23 05:21:17;;;;;;;;;6.25;3.75;;;;;18.19;37.77;100772.06;146620;571;46020;-67
2022/09/23 05:24:10;;;;;;;;;3.75;3.75;;;;;20.35;37.77;101111.03;146617;608;46012;-65
2022/09/23 05:27:20;;;;;;;;;7.00;6.75;;;;;18.60;37.50;100773.75;146610;628;46020;-66
2022/09/23 05:30:26;;;;;;;;;3.75;3.00;;;;;18.40;37.02;100753.22;146611;725;46017;-68
2022/09/23 05:33:22;;;;;;;;;3.75;3.75;;;;;20.18;37.78;101103.69;146614;588;46020;-71
2022/09/23 05:36:16;;;;;;;;;7.50;5.00;;;;;19.97;38.96;101108.56;146613;598;46015;-71
2022/09/23 05:39:14;;;;;;;;;7.00;5.25;;;;;19.90;38.67;101111.94;146616;652;46020;-69
2022/09/23 05:42:12;;;;;;;;;5.00;4.00;;;;;19.88;38.71;101111.03;146610;563;47012;-66
2022/09/23 05:45:13;;;;;;;;;7.25;5.50;;;;;19.94;39.49;101116.44;146617;677;46021;-75
2022/09/23 05:48:13;;;;;;;;;8.25;6.25;;;;;19.97;37.82;101124.34;146616;569;46014;-75
2022/09/23 05:51:28;;;;;;;;;4.00;3.00;;;;;19.92;38.46;101120.75;146619;594;46020;-73
2022/09/23 05:54:20;;;;;;;;;7.50;7.50;;;;;19.77;39.26;101124.84;146612;695;46016;-70
2022/09/23 05:57:13;;;;;;;;;8.00;8.00;;;;;19.70;39.48;101122.97;146608;620;46020;-71
2022/09/23 06:00:08;;;;;;;;;8.75;7.00;;;;;19.65;39.82;101134.25;146615;596;46918;-72
2022/09/23 06:03:07;;;;;;;;;9.00;7.25;;;;;19.71;39.42;101132.63;146619;628;46010;-72
2022/09/23 06:06:08;;;;;;;;;9.00;7.50;;;;;19.73;39.52;101138.81;146609;585;46017;-75
2022/09/23 06:09:18;;;;;;;;;7.00;7.00;;;;;17.80;39.66;100790.44;146616;743;46021;-75
2022/09/23 06:12:24;;;;;;;;;11.00;8.75;;;;;19.90;39.60;101127.72;146611;581;46016;-69
2022/09/23 06:15:18;;;;;;;;;11.25;8.00;;;;;19.99;39.98;101139.31;146618;604;46010;-73
2022/09/23 06:18:10;;;;;;;;;4.25;3.25;;;;;20.18;39.81;101139.69;146610;725;47014;-72
2022/09/23 06:21:07;;;;;;;;;17.25;16.50;;;;;20.40;40.27;101136.56;146615;574;46020;-72
2022/09/23 06:23:59;;;;;;;;;5.75;5.75;;;;;20.68;40.72;101137.06;146610;612;46917;-71
2022/09/23 06:26:51;;;;;;;;;5.00;5.00;;;;;21.01;39.53;101149.03;146611;577;46020;-70
2022/09/23 06:29:44;;;;;;;;;4.75;4.75;;;;;21.30;37.70;101152.09;146616;570;46017;-72
2022/09/23 06:32:53;;;;;;;;;5.25;5.25;;;;;21.52;38.02;101143.62;146621;583;46020;-71
2022/09/23 06:35:49;;;;;;;;;5.50;5.00;;;;;21.76;37.94;101143.06;146615;611;47014;-70
2022/09/23 06:39:01;;;;;;;;;;;;;;;;;;;;;
2022/09/23 06:42:05;;;;;;;;;7.00;5.25;;;;;21.99;37.30;101143.31;146614;596;46016;-70
2022/09/23 06:45:07;;;;;;;;;6.50;5.25;;;;;22.02;37.63;101140.69;146622;565;46010;-71
2022/09/23 06:48:20;;;;;;;;;4.75;4.00;;;;;22.12;37.22;101139.97;146614;578;46016;-70
2022/09/23 06:51:20;;;;;;;;;5.50;5.00;;;;;22.31;37.48;101141.06;146622;576;46010;-70
2022/09/23 06:54:14;;;;;;;;;6.25;5.25;;;;;22.53;37.42;101136.84;146615;613;47012;-71
2022/09/23 06:57:06;;;;;;;;;7.50;6.50;;;;;22.78;37.43;101132.66;146613;573;46020;-71
2022/09/23 07:00:00;;;;;;;;;7.25;5.50;;;;;23.07;36.68;101129.38;146613;651;46016;-69
2022/09/23 07:03:11;;;;;;;;;;;;;;;;;;;;;
2022/09/23 07:06:06;;;;;;;;;2.00;2.00;;;;;23.59;36.24;101116.41;146616;564;46014;-71
2022/09/23 07:09:02;;;;;;;;;11.00;4.75;;;;;23.83;35.94;101125.34;146621;620;46020;-71
2022/09/23 07:12:12;;;;;;;;;3.50;3.50;;;;;24.02;35.78;101124.53;146612;602;46015;-70
2022/09/23 07:15:05;;;;;;;;;5.75;3.00;;;;;24.15;35.08;101130.75;146621;589;46012;-69
2022/09/23 07:18:03;;;;;;;;;4.00;3.00;;;;;24.15;34.99;101122.78;146619;583;46016;-71
2022/09/23 07:20:58;;;;;;;;;6.25;4.00;;;;;24.20;35.04;101126.31;146616;635;46021;-70
2022/09/23 07:24:06;;;;;;;;;;;;;;;;;;;;;
2022/09/23 07:27:13;;;;;;;;;1.25;1.25;;;;;22.47;36.04;100821.47;146604;684;46020;-70
2022/09/23 07:30:10;;;;;;;;;4.50;3.75;;;;;24.12;35.62;101125.44;146612;564;46016;-73
2022/09/23 07:33:02;;;;;;;;;3.00;2.00;;;;;24.02;35.97;101123.62;146614;571;46020;-70
2022/09/23 07:35:54;;;;;;;;;4.25;4.25;;;;;24.04;36.26;101127.16;146612;590;46916;-70
2022/09/23 07:39:02;;;;;;;;;2.00;2.00;;;;;24.11;35.45;101127.19;146615;569;47010;-70
2022/09/23 07:42:04;;;;;;;;;3.00;2.00;;;;;24.18;34.91;101128.09;146611;572;46016;-71
2022/09/23 07:45:01;;;;;;;;;2.00;2.00;;;;;24.19;35.50;101137.81;146614;577;46020;-70
2022/09/23 07:48:05;;;;;;;;;3.00;3.00;;;;;24.22;35.44;101134.28;146609;660;46029;-70
2022/09/23 07:51:00;;;;;;;;;4.00;4.00;;;;;24.27;35.71;101135.16;146616;576;46020;-69
2022/09/23 07:54:07;;;;;;;;;3.00;3.00;;;;;24.24;36.62;101133.41;146611;612;47012;-72
2022/09/23 07:56:59;;;;;;;;;4.25;4.25;;;;;24.22;34.89;101140.47;146603;631;46021;-68
2022/09/23 08:00:01;;;;;;;;;4.50;3.00;;;;;24.24;35.07;101159.91;146613;575;46016;-67
2022/09/23 08:02:56;;;;;;;;;4.50;3.75;;;;;24.29;35.09;101154.59;146614;696;47010;-68
2022/09/23 08:05:49;;;;;;;;;2.00;2.00;;;;;24.30;33.15;101157.28;146612;569;47012;-68
2022/09/23 08:08:46;;;;;;;;;2.00;2.00;;;;;24.25;34.97;101164.31;146615;723;46012;-66
2022/09/23 08:11:40;;;;;;;;;2.67;2.67;;;;;24.16;34.84;101177.53;146613;595;46012;-67
2022/09/23 08:14:41;;;;;;;;;2.00;2.00;;;;;24.14;35.22;101171.34;146615;572;46020;-69
2022/09/23 08:17:45;;;;;;;;;3.00;3.00;;;;;24.13;35.23;101170.47;146611;568;47012;-66
2022/09/23 08:20:46;;;;;;;;;2.50;2.50;;;;;24.13;34.83;101177.53;146617;704;46020;-68
2022/09/23 08:24:05;;;;;;;;;;;;;;;;;;;;;
2022/09/23 08:26:59;;;;;;;;;3.00;3.00;;;;;24.17;34.86;101174.91;146610;678;46021;-67
2022/09/23 08:29:56;;;;;;;;;3.00;2.00;;;;;24.24;34.71;101164.28;146617;581;46016;-69
2022/09/23 08:32:57;;;;;;;;;2.00;2.00;;;;;24.36;34.56;101178.47;146621;643;46013;-68
2022/09/23 08:36:05;;;;;;;;;2.33;1.33;;;;;24.48;33.96;101171.44;146613;580;46016;-68
2022/09/23 08:39:02;;;;;;;;;3.00;3.00;;;;;24.62;34.50;101175.87;146619;563;46012;-68
2022/09/23 08:42:22;;;;;;;;;3.00;2.00;;;;;24.81;34.27;101170.59;146617;628;46017;-69
2022/09/23 08:45:54;;;;;;;;;0.00;0.00;;;;;23.26;33.61;100871.94;146620;603;46029;-68
2022/09/23 08:49:16;;;;;;;;;3.50;3.50;;;;;25.09;34.39;101180.28;146618;652;46012;-68
2022/09/23 08:52:50;;;;;;;;;3.00;3.00;;;;;25.06;33.16;101182.06;146621;593;46020;-69
2022/09/23 08:56:07;;;;;;;;;4.25;4.25;;;;;25.08;33.14;101186.50;146617;573;46016;-68
2022/09/23 08:59:42;;;;;;;;;3.00;3.00;;;;;25.21;33.75;101173.25;146613;595;46010;-68
2022/09/23 09:02:42;;;;;;;;;2.00;2.00;;;;;25.24;33.38;101167.94;146613;656;47012;-66
2022/09/23 09:05:42;;;;;;;;;2.00;2.00;;;;;25.27;31.60;101160.84;146621;571;45021;-69
2022/09/23 09:08:43;;;;;;;;;2.00;2.00;;;;;25.24;32.11;101158.19;146616;563;46016;-67
2022/09/23 09:11:41;;;;;;;;;1.33;1.00;;;;;25.22;31.96;101159.94;146619;610;46010;-66
2022/09/23 09:15:12;;;;;;;;;3.50;2.00;;;;;23.50;33.38;100843.75;146611;668;46016;-66
2022/09/23 09:18:28;;;;;;;;;2.75;2.00;;;;;25.35;31.76;101148.41;146619;701;46021;-69
2022/09/23 09:21:25;;;;;;;;;4.00;4.00;;;;;25.50;31.95;101158.09;146615;674;47014;-67
2022/09/23 09:24:33;;;;;;;;;3.75;3.00;;;;;25.69;32.23;101150.06;146620;586;46020;-68
2022/09/23 09:27:35;;;;;;;;;2.00;2.00;;;;;25.91;30.80;101140.25;146618;578;46013;-67
2022/09/23 09:30:40;;;;;;;;;4.00;4.00;;;;;26.06;32.24;101133.97;146607;628;46020;-68
2022/09/23 09:34:14;;;;;;;;;3.00;2.00;;;;;26.11;31.30;101127.75;146616;676;46017;-68
2022/09/23 09:37:37;;;;;;;;;2.25;2.25;;;;;24.39;31.76;100830.37;146621;670;46010;-64
2022/09/23 09:40:38;;;;;;;;;2.00;2.00;;;;;25.97;30.69;101121.63;146616;588;46017;-67
2022/09/23 09:43:34;;;;;;;;;3.00;3.00;;;;;25.98;31.64;101118.06;146622;611;47010;-67
2022/09/23 09:47:15;;;;;;;;;2.25;2.25;;;;;24.76;31.27;100926.59;146619;620;46016;-68
2022/09/23 09:51:01;;;;;;;;;4.00;4.00;;;;;23.75;32.28;100765.25;146622;581;46020;-65
2022/09/23 09:54:13;;;;;;;;;5.00;4.00;;;;;25.73;31.91;101107.56;146619;645;46016;-66
2022/09/23 09:57:35;;;;;;;;;4.75;4.75;;;;;25.82;32.17;101108.44;146622;622;46010;-69
2022/09/23 10:00:51;;;;;;;;;3.00;3.00;;;;;24.33;32.10;100822.44;146610;706;46012;-69
2022/09/23 10:04:04;;;;;;;;;4.50;4.00;;;;;26.18;31.03;101113.53;146612;638;46020;-68
2022/09/23 10:07:24;;;;;;;;;3.00;3.00;;;;;26.41;31.31;101105.34;146616;574;46016;-71
2022/09/23 10:10:34;;;;;;;;;4.25;4.25;;;;;26.55;30.79;101110.63;146618;707;47013;-69
2022/09/23 10:13:36;;;;;;;;;3.00;2.00;;;;;26.66;29.57;101106.06;146615;635;46038;-70
2022/09/23 10:16:36;;;;;;;;;4.33;2.33;;;;;26.69;28.45;101102.50;146623;612;46010;-68
2022/09/23 10:19:47;;;;;;;;;2.00;2.00;;;;;26.63;28.37;101108.75;146616;589;46012;-69
2022/09/23 10:22:46;;;;;;;;;3.00;3.00;;;;;26.64;28.90;101107.00;146622;657;46020;-69
2022/09/23 10:25:40;;;;;;;;;2.00;2.00;;;;;26.74;28.45;101094.50;146618;710;46013;-69
2022/09/23 10:29:06;;;;;;;;;3.00;2.00;;;;;26.88;27.74;101101.41;146621;586;46010;-69
2022/09/23 10:32:28;;;;;;;;;3.00;1.50;;;;;26.98;27.55;101101.31;146618;644;46016;-69
2022/09/23 10:35:33;;;;;;;;;2.33;2.33;;;;;27.05;27.66;101103.94;146610;624;46020;-68
2022/09/23 10:38:41;;;;;;;;;2.00;2.00;;;;;27.13;29.31;101107.41;146618;577;46012;-69
2022/09/23 10:49:12;;;;;;;;;2.00;2.00;;;;;27.16;30.07;101110.03;146620;581;46021;-67
2022/09/23 10:52:47;;;;;;;;;3.33;3.33;;;;;27.10;31.86;101103.84;146616;575;46016;-70
2022/09/23 10:56:17;;;;;;;;;3.00;2.00;;;;;27.04;31.23;101099.50;146620;582;46010;-67
2022/09/23 10:59:56;;;;;;;;;2.00;2.00;;;;;25.29;31.36;100835.22;146619;570;46914;-70
2022/09/23 11:03:34;;;;;;;;;1.00;1.00;;;;;25.16;32.06;100825.59;146618;583;46023;-68
2022/09/23 11:07:06;;;;;;;;;3.67;1.67;;;;;26.67;31.71;101110.50;146615;564;46014;-70
2022/09/23 11:10:28;;;;;;;;;2.00;2.00;;;;;26.54;31.69;101098.19;146614;658;46021;-69
2022/09/23 11:14:03;;;;;;;;;3.00;2.00;;;;;26.46;31.94;101106.22;146619;604;46012;-67
2022/09/23 11:17:32;;;;;;;;;0.67;0.67;;;;;24.46;31.75;100808.31;146622;572;46020;-67
2022/09/23 11:20:57;;;;;;;;;2.00;2.00;;;;;25.94;32.29;101109.22;146612;572;47016;-70
2022/09/23 11:24:40;;;;;;;;;2.00;2.00;;;;;24.19;32.84;100794.25;146623;596;46021;-69
2022/09/23 11:28:22;;;;;;;;;2.00;2.00;;;;;25.18;32.69;100945.91;146618;577;46913;-69
2022/09/23 11:31:55;;;;;;;;;1.00;1.00;;;;;26.08;32.33;101093.22;146618;639;47010;-67
2022/09/23 11:35:23;;;;;;;;;2.00;2.00;;;;;26.00;30.24;101095.91;146617;652;47012;-67
2022/09/23 11:38:26;;;;;;;;;1.33;1.33;;;;;25.96;31.12;101098.63;146622;571;46020;-68
2022/09/23 11:41:44;;;;;;;;;1.50;1.00;;;;;25.92;31.92;101095.09;146616;686;46016;-67
2022/09/23 11:44:42;;;;;;;;;1.75;1.75;;;;;25.94;31.38;101092.41;146612;574;46010;-69
2022/09/23 11:47:50;;;;;;;;;2.67;2.67;;;;;25.97;31.87;101089.75;146616;610;46916;-68
2022/09/23 11:50:56;;;;;;;;;1.00;1.00;;;;;25.96;31.21;101077.34;146619;586;47012;-68
2022/09/23 11:54:18;;;;;;;;;1.33;1.33;;;;;25.94;31.73;101095.06;146611;564;46017;-69
2022/09/23 11:57:26;;;;;;;;;1.33;1.33;;;;;25.90;30.14;101096.88;146615;636;47010;-68
2022/09/23 12:00:33;;;;;;;;;1.25;1.25;;;;;25.91;30.20;101095.09;146610;626;46032;-67
2022/09/23 12:03:39;;;;;;;;;2.33;2.33;;;;;25.96;30.06;101080.00;146619;580;47012;-67
2022/09/23 12:06:48;;;;;;;;;1.00;1.00;;;;;25.96;30.47;101095.97;146620;652;46918;-68
2022/09/23 12:10:10;;;;;;;;;3.00;3.00;;;;;26.08;32.03;101087.91;146617;714;46021;-67
2022/09/23 12:13:42;;;;;;;;;2.00;2.00;;;;;26.02;31.21;101091.47;146612;575;46016;-68
2022/09/23 12:17:19;;;;;;;;;3.33;2.00;;;;;25.95;31.13;101088.84;146607;599;46010;-67
2022/09/23 12:21:05;;;;;;;;;3.00;3.00;;;;;24.09;31.73;100778.41;146614;576;46918;-69
2022/09/23 12:24:45;;;;;;;;;3.67;2.00;;;;;23.97;31.54;100784.59;146623;581;46010;-68
2022/09/23 12:27:52;;;;;;;;;2.67;2.67;;;;;25.65;32.13;101079.28;146619;582;46012;-68
2022/09/23 12:30:55;;;;;;;;;3.00;3.00;;;;;24.40;31.84;100862.19;146621;571;46011;-68
2022/09/23 12:34:08;;;;;;;;;1.50;1.50;;;;;25.50;31.46;101062.53;146617;723;46012;-69
2022/09/23 12:37:25;;;;;;;;;2.33;2.33;;;;;25.48;32.11;101063.41;146618;601;46020;-67
2022/09/23 12:40:45;;;;;;;;;4.00;3.00;;;;;25.35;31.83;101058.16;146619;628;46919;-67
2022/09/23 12:44:12;;;;;;;;;3.25;3.00;;;;;25.27;32.16;101059.97;146620;569;46020;-67
2022/09/23 12:47:45;;;;;;;;;3.00;3.00;;;;;23.72;32.50;100808.47;146617;653;46918;-68
2022/09/23 12:51:22;;;;;;;;;2.75;2.75;;;;;23.68;32.31;100769.63;146612;690;46020;-68
2022/09/23 12:54:50;;;;;;;;;3.00;3.00;;;;;23.62;31.77;100756.41;146616;641;46017;-68
2022/09/23 12:57:46;;;;;;;;;1.25;1.25;;;;;25.30;31.19;101043.16;146621;571;46010;-68
2022/09/23 13:00:38;;;;;;;;;2.00;2.00;;;;;25.24;31.37;101045.84;146615;569;46016;-68
2022/09/23 13:07:08;;;;;;;;;3.25;3.25;;;;;25.21;31.86;101051.16;146616;687;46016;-67
2022/09/23 13:10:34;;;;;;;;;2.00;2.00;;;;;23.46;32.06;100741.44;146620;577;46023;-67
2022/09/23 13:13:37;;;;;;;;;1.50;1.50;;;;;25.20;31.06;101044.94;146618;648;46012;-68
2022/09/23 13:16:48;;;;;;;;;1.25;1.25;;;;;25.17;31.71;101052.94;146620;668;46012;-67
2022/09/23 13:20:22;;;;;;;;;2.00;2.00;;;;;23.45;31.11;100744.97;146616;667;46016;-68
2022/09/23 13:23:34;;;;;;;;;1.25;1.25;;;;;24.85;31.30;101040.59;146612;586;46021;-67
2022/09/23 13:26:48;;;;;;;;;2.25;2.00;;;;;24.70;31.08;101037.97;146611;604;48016;-68
2022/09/23 13:30:01;;;;;;;;;2.25;2.00;;;;;24.60;31.76;101025.62;146621;637;46010;-67
2022/09/23 13:33:20;;;;;;;;;3.00;3.00;;;;;24.65;31.94;101026.53;146614;582;46016;-68
2022/09/23 13:36:22;;;;;;;;;5.00;4.00;;;;;23.82;32.05;100880.84;146621;582;46010;-67
2022/09/23 13:39:39;;;;;;;;;2.25;2.25;;;;;23.89;32.20;100900.25;146614;620;47014;-66
2022/09/23 13:42:42;;;;;;;;;2.50;2.50;;;;;24.65;31.18;101022.09;146621;671;46010;-67
2022/09/23 13:45:43;;;;;;;;;4.00;3.50;;;;;24.52;31.96;101025.66;146614;706;47013;-68
2022/09/23 13:48:38;;;;;;;;;3.75;3.75;;;;;24.43;32.57;101028.31;146620;563;46020;-67
2022/09/23 13:52:00;;;;;;;;;3.50;3.50;;;;;24.45;32.72;101026.53;146617;563;46016;-69
2022/09/23 13:54:53;;;;;;;;;3.75;3.25;;;;;24.43;32.36;101037.16;146612;710;46010;-67
2022/09/23 13:57:49;;;;;;;;;3.50;3.50;;;;;24.38;32.58;101033.56;146615;609;46016;-67
2022/09/23 14:00:44;;;;;;;;;3.75;3.00;;;;;24.34;32.92;101037.13;146620;576;46021;-66
2022/09/23 14:03:43;;;;;;;;;4.25;4.00;;;;;24.28;33.02;101026.50;146617;565;47012;-67
2022/09/23 14:06:42;;;;;;;;;4.00;4.00;;;;;24.27;33.13;101030.06;146619;603;46030;-68
2022/09/23 14:10:01;;;;;;;;;4.50;4.50;;;;;24.25;32.83;101029.16;146614;661;46016;-68
2022/09/23 14:13:02;;;;;;;;;2.50;2.50;;;;;24.08;32.25;101029.19;146621;623;46010;-67
2022/09/23 14:16:06;;;;;;;;;3.00;3.00;;;;;23.92;33.44;101033.53;146617;591;46013;-67
2022/09/23 14:19:03;;;;;;;;;4.75;3.25;;;;;23.87;34.53;101037.09;146622;664;46010;-68
2022/09/23 14:22:01;;;;;;;;;4.50;4.50;;;;;23.83;34.37;101044.16;146614;574;47014;-67
2022/09/23 14:25:17;;;;;;;;;4.00;4.00;;;;;23.78;33.84;101039.72;146613;570;46010;-67
2022/09/23 14:28:23;;;;;;;;;3.25;3.25;;;;;23.73;34.11;101037.06;146618;666;46012;-67
2022/09/23 14:31:18;;;;;;;;;3.00;3.00;;;;;23.71;34.22;101041.47;146621;622;46010;-68
2022/09/23 14:34:51;;;;;;;;;4.00;3.50;;;;;22.01;33.93;100760.47;146616;574;46016;-68
2022/09/23 14:41:20;;;;;;;;;2.00;2.00;;;;;23.51;34.00;101050.19;146617;673;46016;-67
2022/09/23 14:44:26;;;;;;;;;2.50;2.50;;;;;23.48;34.52;101054.59;146620;625;46021;-67
2022/09/23 14:47:32;;;;;;;;;3.00;3.00;;;;;23.46;34.23;101048.44;146618;633;46014;-68
2022/09/23 14:50:49;;;;;;;;;;;;;;;;;;;;;
2022/09/23 14:53:54;;;;;;;;;3.50;3.50;;;;;23.24;34.49;101051.00;146616;593;46016;-68
2022/09/23 14:56:52;;;;;;;;;4.00;4.00;;;;;23.18;35.25;101043.03;146612;609;47010;-66
2022/09/23 15:00:10;;;;;;;;;3.75;3.75;;;;;23.04;36.18;101065.88;146618;608;46017;-67
2022/09/23 15:03:20;;;;;;;;;6.75;5.00;;;;;22.85;36.21;101061.31;146620;586;47010;-68
2022/09/23 15:06:12;;;;;;;;;3.75;3.75;;;;;22.73;36.55;101064.75;146614;678;47013;-67
2022/09/23 15:09:04;;;;;;;;;4.00;3.25;;;;;22.61;37.95;101073.47;146623;693;46020;-67
2022/09/23 15:12:28;;;;;;;;;3.50;3.00;;;;;20.44;38.60;100742.44;146618;575;46016;-67
2022/09/23 15:15:39;;;;;;;;;;;;;;;;;;;;;
2022/09/23 15:18:43;;;;;;;;;7.50;5.75;;;;;19.79;38.38;100698.66;146618;595;46012;-68
2022/09/23 15:21:49;;;;;;;;;3.50;2.50;;;;;21.83;38.53;101081.53;146620;691;46020;-66